createdAt,value
2023-03-03T00:01:26.463Z,4.15
2023-03-03T00:03:54.116Z,4.10
2023-03-03T00:06:21.671Z,4.11
2023-03-03T00:08:48.345Z,4.13
2023-03-03T00:11:15.142Z,4.15
2023-03-03T00:13:53.764Z,4.16
2023-03-03T00:16:23.747Z,4.13
2023-03-03T00:18:52.276Z,4.10
2023-03-03T00:21:28.858Z,4.10
2023-03-03T00:24:16.199Z,4.11
2023-03-03T00:27:00.174Z,4.12
2023-03-03T00:29:35.355Z,4.15
2023-03-03T00:32:14.422Z,4.18
2023-03-03T00:34:42.582Z,4.18
2023-03-03T00:37:30.023Z,4.16
2023-03-03T00:40:21.627Z,4.12
2023-03-03T00:42:54.581Z,4.07
2023-03-03T00:45:24.508Z,4.03
2023-03-03T00:47:51.320Z,4.02
2023-03-03T00:50:30.519Z,4.03
2023-03-03T00:53:04.483Z,4.04
2023-03-03T00:55:32.590Z,4.02
2023-03-03T00:58:00.025Z,3.99
2023-03-03T01:00:29.172Z,4.01
2023-03-03T01:02:56.873Z,4.03
2023-03-03T01:05:23.688Z,4.02
2023-03-03T01:07:50.565Z,4.00
2023-03-03T01:10:29.933Z,4.01
2023-03-03T01:12:57.732Z,4.02
2023-03-03T01:15:24.653Z,4.01
2023-03-03T01:17:51.605Z,4.00
2023-03-03T01:20:19.185Z,4.01
2023-03-03T01:22:45.934Z,4.04
2023-03-03T01:25:12.743Z,4.09
2023-03-03T01:27:39.860Z,4.13
2023-03-03T01:30:08.779Z,4.16
2023-03-03T01:32:36.592Z,4.19
2023-03-03T01:35:03.656Z,4.21
2023-03-03T01:37:30.621Z,4.25
2023-03-03T01:39:57.436Z,4.27
2023-03-03T01:42:28.622Z,4.27
2023-03-03T01:45:25.451Z,4.25
2023-03-03T01:48:06.106Z,4.24
2023-03-03T01:50:35.915Z,4.24
2023-03-03T01:53:05.258Z,4.25
2023-03-03T01:55:36.245Z,4.26
2023-03-03T01:58:13.830Z,4.28
2023-03-03T02:00:45.305Z,4.29
2023-03-03T02:03:12.294Z,4.28
2023-03-03T02:05:41.505Z,4.26
2023-03-03T02:08:15.584Z,4.25
2023-03-03T02:10:45.554Z,4.26
2023-03-03T02:13:13.319Z,4.28
2023-03-03T02:15:40.167Z,4.30
2023-03-03T02:18:20.164Z,4.32
2023-03-03T02:21:08.263Z,4.34
2023-03-03T02:24:14.445Z,4.36
2023-03-03T02:26:42.505Z,4.39
2023-03-03T02:29:10.502Z,4.42
2023-03-03T02:31:38.033Z,4.43
2023-03-03T02:34:05.945Z,4.43
2023-03-03T02:36:36.153Z,4.43
2023-03-03T02:39:08.760Z,4.45
2023-03-03T02:41:53.173Z,4.47
2023-03-03T02:44:23.647Z,4.48
2023-03-03T02:46:52.824Z,4.50
2023-03-03T02:49:22.814Z,4.53
2023-03-03T02:51:50.576Z,4.55
2023-03-03T02:54:19.577Z,4.57
2023-03-03T02:56:46.908Z,4.61
2023-03-03T02:59:14.325Z,4.63
2023-03-03T03:01:44.808Z,4.66
2023-03-03T03:04:19.400Z,4.68
2023-03-03T03:06:48.274Z,4.70
2023-03-03T03:09:17.697Z,4.72
2023-03-03T03:11:45.182Z,4.73
2023-03-03T03:14:13.956Z,4.75
2023-03-03T03:16:41.281Z,4.76
2023-03-03T03:19:08.719Z,4.78
2023-03-03T03:21:36.291Z,4.80
2023-03-03T03:24:04.842Z,4.82
2023-03-03T03:26:32.523Z,4.83
2023-03-03T03:28:59.663Z,4.84
2023-03-03T03:31:26.942Z,4.85
2023-03-03T03:33:53.828Z,4.88
2023-03-03T03:36:21.047Z,4.89
2023-03-03T03:38:48.802Z,4.90
2023-03-03T03:41:15.632Z,4.91
2023-03-03T03:43:42.842Z,4.92
2023-03-03T03:46:09.889Z,4.93
2023-03-03T03:48:36.813Z,4.93
2023-03-03T03:51:05.008Z,4.94
2023-03-03T03:53:32.314Z,4.95
2023-03-03T03:55:59.125Z,4.95
2023-03-03T03:58:26.353Z,4.95
2023-03-03T04:01:03.965Z,4.96
2023-03-03T04:03:31.067Z,4.95
2023-03-03T04:05:57.966Z,4.95
2023-03-03T04:08:25.481Z,4.96
2023-03-03T04:10:52.991Z,4.95
2023-03-03T04:13:20.151Z,4.95
2023-03-03T04:15:47.032Z,4.96
2023-03-03T04:18:14.087Z,4.95
2023-03-03T04:20:41.707Z,4.96
2023-03-03T04:23:10.798Z,4.96
2023-03-03T04:25:37.823Z,4.96
2023-03-03T04:28:11.863Z,4.96
2023-03-03T04:30:38.821Z,4.96
2023-03-03T04:33:05.672Z,4.96
2023-03-03T04:35:33.066Z,4.95
2023-03-03T04:38:00.266Z,4.94
2023-03-03T04:40:27.431Z,4.93
2023-03-03T04:42:54.481Z,4.93
2023-03-03T04:45:21.270Z,4.93
2023-03-03T04:47:48.996Z,4.92
2023-03-03T04:50:16.837Z,4.91
2023-03-03T04:52:44.076Z,4.90
2023-03-03T04:55:11.889Z,4.90
2023-03-03T04:57:39.773Z,4.89
2023-03-03T05:00:07.342Z,4.89
2023-03-03T05:02:34.343Z,4.88
2023-03-03T05:05:01.895Z,4.87
2023-03-03T05:07:28.926Z,4.86
2023-03-03T05:09:56.126Z,4.85
2023-03-03T05:12:22.976Z,4.85
2023-03-03T05:14:49.843Z,4.85
2023-03-03T05:17:16.606Z,4.85
2023-03-03T05:19:43.731Z,4.85
2023-03-03T05:22:10.667Z,4.84
2023-03-03T05:24:37.417Z,4.85
2023-03-03T05:27:04.235Z,4.84
2023-03-03T05:29:31.175Z,4.84
2023-03-03T05:31:58.136Z,4.84
2023-03-03T05:34:25.017Z,4.85
2023-03-03T05:36:53.128Z,4.85
2023-03-03T05:39:20.109Z,4.86
2023-03-03T05:41:47.067Z,4.87
2023-03-03T05:44:14.025Z,4.89
2023-03-03T05:46:41.992Z,4.90
2023-03-03T05:49:09.060Z,4.92
2023-03-03T05:51:36.037Z,4.95
2023-03-03T05:54:02.975Z,4.97
2023-03-03T05:56:29.861Z,4.99
2023-03-03T05:58:58.080Z,5.02
2023-03-03T06:01:25.008Z,5.06
2023-03-03T06:03:52.436Z,5.09
2023-03-03T06:06:19.350Z,5.12
2023-03-03T06:08:46.164Z,5.16
2023-03-03T06:11:13.171Z,5.20
2023-03-03T06:13:42.104Z,5.24
2023-03-03T06:16:09.411Z,5.26
2023-03-03T06:18:38.848Z,5.31
2023-03-03T06:21:08.260Z,5.35
2023-03-03T06:23:35.098Z,5.39
2023-03-03T06:26:03.703Z,5.43
2023-03-03T06:28:33.824Z,5.49
2023-03-03T06:31:05.419Z,5.53
2023-03-03T06:33:32.254Z,5.57
2023-03-03T06:35:59.145Z,5.62
2023-03-03T06:38:26.260Z,5.67
2023-03-03T06:40:54.757Z,5.72
2023-03-03T06:43:21.699Z,5.78
2023-03-03T06:45:48.570Z,5.83
2023-03-03T06:48:18.376Z,5.87
2023-03-03T06:50:45.177Z,5.92
2023-03-03T06:53:15.109Z,5.98
2023-03-03T06:55:44.243Z,6.04
2023-03-03T06:58:17.433Z,6.09
2023-03-03T07:00:56.847Z,6.13
2023-03-03T07:03:34.635Z,6.16
2023-03-03T07:06:09.217Z,6.23
2023-03-03T07:08:39.471Z,6.29
2023-03-03T07:11:14.628Z,6.39
2023-03-03T07:13:54.447Z,6.48
2023-03-03T07:16:26.823Z,6.54
2023-03-03T07:19:04.766Z,6.59
2023-03-03T07:21:36.803Z,6.65
2023-03-03T07:24:30.108Z,6.72
2023-03-03T07:27:13.234Z,6.76
2023-03-03T07:29:43.735Z,6.83
2023-03-03T07:32:16.710Z,6.89
2023-03-03T07:35:40.484Z,6.91
2023-03-03T07:38:38.704Z,6.97
2023-03-03T07:41:23.005Z,7.03
2023-03-03T07:43:54.003Z,7.08
2023-03-03T07:46:40.860Z,7.16
2023-03-03T07:49:39.816Z,7.23
2023-03-03T07:52:27.665Z,7.30
2023-03-03T07:54:57.405Z,7.33
2023-03-03T07:57:31.108Z,7.35
2023-03-03T08:00:18.264Z,7.41
2023-03-03T08:02:48.542Z,7.47
2023-03-03T08:05:30.816Z,7.51
2023-03-03T08:08:28.918Z,7.58
2023-03-03T08:10:58.475Z,7.66
2023-03-03T08:13:34.594Z,7.73
2023-03-03T08:16:20.716Z,7.79
2023-03-03T08:18:52.913Z,7.87
2023-03-03T08:21:36.203Z,7.93
2023-03-03T08:24:06.390Z,7.89
2023-03-03T08:26:33.517Z,7.84
2023-03-03T08:29:00.858Z,7.88
2023-03-03T08:31:40.675Z,7.94
2023-03-03T08:34:19.657Z,7.99
2023-03-03T08:36:49.069Z,8.08
2023-03-03T08:39:17.320Z,8.23
2023-03-03T08:41:45.815Z,8.32
2023-03-03T08:44:12.664Z,8.41
2023-03-03T08:46:43.643Z,8.53
2023-03-03T08:49:14.907Z,8.67
2023-03-03T08:51:43.000Z,8.83
2023-03-03T08:54:11.783Z,8.99
2023-03-03T08:56:41.107Z,9.14
2023-03-03T08:59:08.068Z,9.35
2023-03-03T09:01:35.143Z,9.43
2023-03-03T09:04:02.114Z,9.39
2023-03-03T09:06:31.952Z,9.34
2023-03-03T09:09:04.225Z,9.37
2023-03-03T09:11:33.799Z,9.39
2023-03-03T09:14:37.735Z,9.24
2023-03-03T09:17:35.828Z,8.76
2023-03-03T09:20:26.112Z,8.52
2023-03-03T09:22:53.397Z,8.47
2023-03-03T09:25:37.219Z,8.63
2023-03-03T09:31:52.474Z,8.96
2023-03-03T09:34:34.221Z,8.55
2023-03-03T09:37:22.850Z,8.18
2023-03-03T09:40:06.531Z,8.13
2023-03-03T09:42:44.566Z,8.27
2023-03-03T09:45:17.495Z,8.43
2023-03-03T09:48:16.984Z,8.65
2023-03-03T09:51:15.172Z,8.73
2023-03-03T09:53:48.881Z,8.95
2023-03-03T09:56:57.074Z,9.08
2023-03-03T09:59:45.810Z,9.04
2023-03-03T10:02:34.595Z,9.11
2023-03-03T10:05:15.251Z,9.18
2023-03-03T10:08:18.199Z,9.13
2023-03-03T10:10:56.266Z,9.05
2023-03-03T10:13:39.908Z,9.18
2023-03-03T10:16:16.085Z,9.35
2023-03-03T10:18:57.561Z,9.51
2023-03-03T10:21:29.601Z,9.60
2023-03-03T10:24:06.089Z,9.71
2023-03-03T10:27:12.504Z,9.87
2023-03-03T10:30:11.366Z,10.03
2023-03-03T10:33:01.641Z,10.18
2023-03-03T10:36:06.938Z,10.30
2023-03-03T10:39:17.837Z,10.49
2023-03-03T10:42:09.926Z,10.70
2023-03-03T10:44:53.334Z,10.84
2023-03-03T10:47:39.173Z,10.75
2023-03-03T10:50:24.142Z,10.54
2023-03-03T10:52:54.120Z,10.31
2023-03-03T10:55:39.481Z,10.36
2023-03-03T10:58:32.415Z,10.47
2023-03-03T11:01:05.174Z,10.50
2023-03-03T11:03:50.637Z,10.64
2023-03-03T11:06:38.889Z,10.86
2023-03-03T11:09:40.332Z,11.04
2023-03-03T11:12:31.811Z,11.13
2023-03-03T11:15:26.459Z,11.16
2023-03-03T11:18:16.212Z,11.14
2023-03-03T11:21:11.523Z,11.10
2023-03-03T11:23:58.519Z,11.08
2023-03-03T11:26:34.099Z,11.11
2023-03-03T11:29:11.002Z,11.12
2023-03-03T11:31:59.771Z,11.09
2023-03-03T11:35:01.570Z,11.16
2023-03-03T11:38:14.046Z,11.25
2023-03-03T11:40:58.770Z,11.33
2023-03-03T11:43:52.518Z,11.50
2023-03-03T11:46:26.870Z,11.70
2023-03-03T11:49:18.310Z,11.79
2023-03-03T11:52:05.887Z,11.96
2023-03-03T11:55:09.664Z,12.23
2023-03-03T11:58:05.024Z,12.35
2023-03-03T12:00:57.396Z,12.31
2023-03-03T12:03:49.306Z,12.26
2023-03-03T12:06:25.395Z,12.10
2023-03-03T12:09:24.445Z,11.89
2023-03-03T12:12:05.845Z,11.74
2023-03-03T12:14:53.686Z,11.70
2023-03-03T12:17:35.914Z,11.67
2023-03-03T12:20:07.294Z,11.78
2023-03-03T12:23:06.394Z,11.96
2023-03-03T12:26:12.801Z,12.03
2023-03-03T12:28:55.132Z,12.04
2023-03-03T12:31:52.350Z,11.95
2023-03-03T12:34:33.072Z,11.70
2023-03-03T12:37:43.290Z,11.46
2023-03-03T12:40:20.595Z,11.20
2023-03-03T12:43:10.739Z,11.01
2023-03-03T12:46:03.647Z,10.85
2023-03-03T12:48:46.170Z,10.75
2023-03-03T12:51:32.082Z,10.65
2023-03-03T12:54:22.055Z,10.55
2023-03-03T12:57:03.332Z,10.46
2023-03-03T12:59:55.811Z,10.38
2023-03-03T13:02:25.824Z,10.32
2023-03-03T13:05:10.882Z,10.22
2023-03-03T13:08:05.851Z,10.15
2023-03-03T13:10:50.831Z,10.08
2023-03-03T13:13:33.174Z,10.01
2023-03-03T13:16:06.966Z,9.96
2023-03-03T13:18:55.403Z,9.94
2023-03-03T13:21:31.762Z,9.95
2023-03-03T13:24:18.489Z,9.97
2023-03-03T13:27:11.413Z,10.00
2023-03-03T13:30:00.281Z,9.99
2023-03-03T13:32:43.417Z,10.00
2023-03-03T13:35:37.955Z,9.99
2023-03-03T13:38:09.857Z,9.98
2023-03-03T13:40:43.892Z,9.96
2023-03-03T13:43:49.310Z,9.93
2023-03-03T13:46:45.629Z,9.87
2023-03-03T13:49:28.362Z,9.83
2023-03-03T13:52:03.546Z,9.82
2023-03-03T13:54:39.271Z,9.85
2023-03-03T13:57:18.095Z,9.91
2023-03-03T13:59:55.409Z,9.98
2023-03-03T14:02:45.407Z,9.99
2023-03-03T14:05:22.344Z,9.98
2023-03-03T14:07:49.181Z,9.97
2023-03-03T14:10:35.291Z,9.94
2023-03-03T14:13:07.445Z,9.94
2023-03-03T14:16:03.218Z,9.96
2023-03-03T14:18:48.171Z,9.98
2023-03-03T14:21:32.075Z,10.02
2023-03-03T14:24:15.899Z,10.03
2023-03-03T14:26:56.170Z,10.01
2023-03-03T14:29:32.178Z,9.97
2023-03-03T14:32:03.126Z,9.92
2023-03-03T14:34:36.117Z,9.87
2023-03-03T14:37:40.537Z,9.83
2023-03-03T14:40:22.523Z,9.78
2023-03-03T14:42:52.460Z,9.75
2023-03-03T14:45:37.504Z,9.75
2023-03-03T14:48:13.247Z,9.77
2023-03-03T14:50:42.434Z,9.82
2023-03-03T14:53:20.917Z,9.88
2023-03-03T14:55:53.022Z,9.93
2023-03-03T14:58:29.605Z,9.98
2023-03-03T15:01:13.991Z,10.03
2023-03-03T15:03:51.912Z,10.05
2023-03-03T15:06:49.433Z,10.05
2023-03-03T15:09:42.080Z,10.00
2023-03-03T15:12:35.819Z,10.00
2023-03-03T15:15:11.323Z,10.01
2023-03-03T15:18:16.953Z,9.99
2023-03-03T15:21:38.723Z,9.95
2023-03-03T15:24:18.433Z,9.94
2023-03-03T15:27:12.974Z,9.92
2023-03-03T15:30:03.615Z,9.90
2023-03-03T15:32:40.914Z,9.86
2023-03-03T15:35:25.947Z,9.78
2023-03-03T15:38:33.555Z,9.68
2023-03-03T15:41:20.920Z,9.56
2023-03-03T15:44:08.308Z,9.46
2023-03-03T15:46:43.881Z,9.36
2023-03-03T15:49:28.941Z,9.26
2023-03-03T15:52:24.562Z,9.19
2023-03-03T15:55:44.195Z,9.10
2023-03-03T15:58:29.863Z,9.02
2023-03-03T16:01:14.270Z,8.96
2023-03-03T16:03:52.751Z,8.90
2023-03-03T16:07:09.516Z,8.84
2023-03-03T16:09:51.499Z,8.73
2023-03-03T16:12:52.645Z,8.64
2023-03-03T16:16:19.331Z,8.52
2023-03-03T16:19:09.277Z,8.41
2023-03-03T16:22:07.673Z,8.31
2023-03-03T16:24:53.309Z,8.24
2023-03-03T16:27:38.015Z,8.19
2023-03-03T16:30:16.554Z,8.12
2023-03-03T16:33:04.995Z,8.06
2023-03-03T16:35:39.792Z,7.98
2023-03-03T16:38:20.737Z,7.90
2023-03-03T16:40:55.257Z,7.82
2023-03-03T16:43:26.908Z,7.74
2023-03-03T16:46:00.754Z,7.68
2023-03-03T16:48:41.851Z,7.63
2023-03-03T16:51:26.041Z,7.56
2023-03-03T16:53:52.835Z,7.51
2023-03-03T16:56:24.191Z,7.47
2023-03-03T16:59:34.289Z,7.44
2023-03-03T17:02:32.044Z,7.38
2023-03-03T17:05:28.260Z,7.34
2023-03-03T17:08:19.179Z,7.30
2023-03-03T17:10:57.808Z,7.28
2023-03-03T17:13:39.432Z,7.25
2023-03-03T17:16:42.859Z,7.20
2023-03-03T17:19:26.165Z,7.12
2023-03-03T17:22:14.781Z,7.05
2023-03-03T17:25:26.486Z,6.95
2023-03-03T17:27:53.255Z,6.85
2023-03-03T17:30:48.276Z,6.76
2023-03-03T17:33:21.081Z,6.66
2023-03-03T17:36:08.919Z,6.58
2023-03-03T17:38:58.368Z,6.50
2023-03-03T17:41:49.337Z,6.42
2023-03-03T17:44:35.238Z,6.34
2023-03-03T17:47:07.699Z,6.26
2023-03-03T17:49:53.242Z,6.19
2023-03-03T17:52:56.360Z,6.14
2023-03-03T17:55:57.850Z,6.08
2023-03-03T17:58:27.683Z,6.01
2023-03-03T18:01:08.025Z,5.95
2023-03-03T18:04:12.239Z,5.89
2023-03-03T18:06:42.246Z,5.83
2023-03-03T18:09:26.275Z,5.77
2023-03-03T18:12:03.524Z,5.71
2023-03-03T18:14:33.578Z,5.65
2023-03-03T18:17:35.026Z,5.59
2023-03-03T18:20:13.934Z,5.53
2023-03-03T18:22:45.886Z,5.49
2023-03-03T18:25:16.379Z,5.47
2023-03-03T18:27:46.426Z,5.45
2023-03-03T18:30:16.679Z,5.43
2023-03-03T18:32:46.796Z,5.40
2023-03-03T18:35:47.834Z,5.38
2023-03-03T18:38:16.879Z,5.34
2023-03-03T18:41:05.191Z,5.32
2023-03-03T18:43:42.458Z,5.28
2023-03-03T18:46:39.466Z,5.24
2023-03-03T18:49:12.250Z,5.21
2023-03-03T18:51:43.203Z,5.17
2023-03-03T18:54:33.576Z,5.12
2023-03-03T18:57:06.387Z,5.07
2023-03-03T18:59:36.665Z,5.01
2023-03-03T19:02:22.175Z,4.97
2023-03-03T19:05:17.992Z,4.91
2023-03-03T19:09:13.487Z,4.83
2023-03-03T19:11:55.470Z,4.73
2023-03-03T19:14:27.055Z,4.66
2023-03-03T19:16:59.272Z,4.59
2023-03-03T19:19:33.839Z,4.53
2023-03-03T19:22:24.873Z,4.48
2023-03-03T19:25:11.936Z,4.42
2023-03-03T19:28:01.328Z,4.36
2023-03-03T19:31:00.477Z,4.30
2023-03-03T19:34:06.048Z,4.24
2023-03-03T19:36:53.258Z,4.18
2023-03-03T19:39:50.171Z,4.12
2023-03-03T19:42:39.809Z,4.08
2023-03-03T19:46:03.267Z,4.04
2023-03-03T19:49:23.500Z,3.98
2023-03-03T19:51:53.994Z,3.92
2023-03-03T19:54:36.798Z,3.87
2023-03-03T19:57:23.502Z,3.82
2023-03-03T20:00:29.888Z,3.77
2023-03-03T20:03:19.861Z,3.72
2023-03-03T20:06:09.119Z,3.67
2023-03-03T20:08:57.289Z,3.62
2023-03-03T20:11:45.840Z,3.58
2023-03-03T20:14:28.907Z,3.54
2023-03-03T20:17:06.275Z,3.51
2023-03-03T20:19:58.218Z,3.48
2023-03-03T20:23:28.405Z,3.44
2023-03-03T20:26:08.980Z,3.39
2023-03-03T20:29:13.398Z,3.34
2023-03-03T20:31:55.546Z,3.30
2023-03-03T20:34:47.353Z,3.27
2023-03-03T20:37:25.232Z,3.25
2023-03-03T20:40:16.634Z,3.23
2023-03-03T20:43:13.603Z,3.21
2023-03-03T20:46:10.014Z,3.20
2023-03-03T20:48:55.594Z,3.20
2023-03-03T20:51:40.913Z,3.20
2023-03-03T20:54:38.840Z,3.22
2023-03-03T20:57:19.609Z,3.23
2023-03-03T20:59:58.271Z,3.23
2023-03-03T21:02:40.757Z,3.24
2023-03-03T21:05:31.010Z,3.26
2023-03-03T21:08:01.351Z,3.25
2023-03-03T21:10:37.532Z,3.24
2023-03-03T21:13:28.955Z,3.23
2023-03-03T21:16:31.262Z,3.22
2023-03-03T21:19:09.918Z,3.23
2023-03-03T21:21:46.172Z,3.23
2023-03-03T21:24:20.492Z,3.24
2023-03-03T21:27:25.940Z,3.26
2023-03-03T21:30:10.493Z,3.29
2023-03-03T21:32:47.208Z,3.32
2023-03-03T21:35:17.356Z,3.36
2023-03-03T21:37:49.442Z,3.39
2023-03-03T21:40:24.817Z,3.44
2023-03-03T21:42:55.728Z,3.49
2023-03-03T21:45:24.073Z,3.50
2023-03-03T21:47:54.505Z,3.53
2023-03-03T21:50:21.632Z,3.56
2023-03-03T21:52:49.245Z,3.59
2023-03-03T21:55:17.724Z,3.62
2023-03-03T21:57:45.958Z,3.65
2023-03-03T22:00:14.588Z,3.68
2023-03-03T22:02:42.810Z,3.70
2023-03-03T22:05:10.725Z,3.71
2023-03-03T22:07:38.732Z,3.72
2023-03-03T22:10:07.429Z,3.70
2023-03-03T22:12:34.631Z,3.68
2023-03-03T22:15:02.021Z,3.68
2023-03-03T22:17:29.335Z,3.68
2023-03-03T22:20:00.126Z,3.66
2023-03-03T22:22:27.668Z,3.60
2023-03-03T22:24:55.196Z,3.55
2023-03-03T22:27:22.311Z,3.52
2023-03-03T22:29:51.858Z,3.53
2023-03-03T22:32:22.214Z,3.54
2023-03-03T22:34:49.176Z,3.55
2023-03-03T22:37:16.093Z,3.54
2023-03-03T22:39:45.788Z,3.52
2023-03-03T22:42:12.492Z,3.45
2023-03-03T22:44:39.631Z,3.41
2023-03-03T22:47:06.424Z,3.38
2023-03-03T22:49:33.196Z,3.35
2023-03-03T22:52:01.934Z,3.34
2023-03-03T22:54:28.659Z,3.32
2023-03-03T22:56:55.975Z,3.32
2023-03-03T22:59:22.702Z,3.32
2023-03-03T23:01:49.445Z,3.31
2023-03-03T23:04:16.302Z,3.29
2023-03-03T23:06:44.539Z,3.27
2023-03-03T23:09:15.149Z,3.27
2023-03-03T23:11:48.488Z,3.28
2023-03-03T23:14:15.346Z,3.29
2023-03-03T23:16:42.234Z,3.29
2023-03-03T23:19:09.118Z,3.29
2023-03-03T23:21:36.075Z,3.31
2023-03-03T23:24:03.080Z,3.32
2023-03-03T23:26:30.056Z,3.34
2023-03-03T23:28:57.004Z,3.36
2023-03-03T23:31:25.682Z,3.37
2023-03-03T23:33:54.740Z,3.38
2023-03-03T23:36:21.528Z,3.39
2023-03-03T23:38:48.309Z,3.40
2023-03-03T23:41:15.052Z,3.42
2023-03-03T23:43:41.696Z,3.43
2023-03-03T23:46:08.486Z,3.45
2023-03-03T23:48:35.363Z,3.46
2023-03-03T23:51:03.231Z,3.45
2023-03-03T23:53:29.905Z,3.43
2023-03-03T23:55:56.620Z,3.42
2023-03-03T23:58:23.182Z,3.41
